createdAt,value
2023-05-09T00:01:51.356Z,100695.19
2023-05-09T00:04:19.909Z,100694.63
2023-05-09T00:06:47.515Z,100701.25
2023-05-09T00:09:14.813Z,100702.31
2023-05-09T00:11:42.470Z,100695.34
2023-05-09T00:14:10.652Z,100698.06
2023-05-09T00:16:38.174Z,100699.00
2023-05-09T00:19:05.820Z,100696.28
2023-05-09T00:21:34.634Z,100698.81
2023-05-09T00:24:04.407Z,100690.97
2023-05-09T00:26:32.595Z,100702.03
2023-05-09T00:29:00.501Z,100685.94
2023-05-09T00:31:28.126Z,100687.06
2023-05-09T00:33:56.156Z,100695.66
2023-05-09T00:36:23.793Z,100683.97
2023-05-09T00:38:51.340Z,100682.41
2023-05-09T00:41:18.785Z,100683.59
2023-05-09T00:43:46.595Z,100675.84
2023-05-09T00:46:14.016Z,100681.75
2023-05-09T00:48:41.669Z,100687.06
2023-05-09T00:51:09.058Z,100679.06
2023-05-09T00:53:36.488Z,100681.91
2023-05-09T00:56:04.620Z,100682.09
2023-05-09T00:58:32.220Z,100688.00
2023-05-09T01:01:01.835Z,100683.81
2023-05-09T01:03:30.419Z,100676.47
2023-05-09T01:06:10.052Z,100678.00
2023-05-09T01:08:41.503Z,100682.00
2023-05-09T01:11:13.734Z,100683.63
2023-05-09T01:13:44.880Z,100673.78
2023-05-09T01:16:31.352Z,100681.53
2023-05-09T01:19:02.441Z,100681.28
2023-05-09T01:21:30.551Z,100684.00
2023-05-09T01:24:17.657Z,100684.16
2023-05-09T01:26:46.845Z,100685.59
2023-05-09T01:29:23.062Z,100682.69
2023-05-09T01:31:51.009Z,100670.38
2023-05-09T01:34:18.559Z,100679.59
2023-05-09T01:36:45.798Z,100675.56
2023-05-09T01:39:14.292Z,100680.44
2023-05-09T01:41:42.775Z,100672.59
2023-05-09T01:44:11.571Z,100666.66
2023-05-09T01:46:39.524Z,100670.56
2023-05-09T01:49:07.610Z,100667.63
2023-05-09T01:51:36.183Z,100673.47
2023-05-09T01:54:04.568Z,100667.31
2023-05-09T01:56:32.275Z,100659.97
2023-05-09T01:58:59.476Z,100663.25
2023-05-09T02:01:27.189Z,100664.00
2023-05-09T02:03:54.813Z,100657.56
2023-05-09T02:06:22.419Z,100661.22
2023-05-09T02:08:51.581Z,100657.56
2023-05-09T02:11:19.474Z,100651.25
2023-05-09T02:13:46.713Z,100659.09
2023-05-09T02:16:14.112Z,100654.97
2023-05-09T02:18:42.221Z,100650.22
2023-05-09T02:21:10.119Z,100652.09
2023-05-09T02:23:38.560Z,100651.16
2023-05-09T02:26:06.412Z,100643.06
2023-05-09T02:28:33.937Z,100648.34
2023-05-09T02:31:02.436Z,100646.87
2023-05-09T02:33:39.008Z,100644.19
2023-05-09T02:36:08.332Z,100642.94
2023-05-09T02:38:36.163Z,100648.22
2023-05-09T02:41:03.525Z,100648.72
2023-05-09T02:43:30.741Z,100648.00
2023-05-09T02:45:59.289Z,100647.78
2023-05-09T02:48:29.133Z,100648.44
2023-05-09T02:50:58.958Z,100641.22
2023-05-09T02:53:27.356Z,100642.53
2023-05-09T02:55:54.774Z,100638.41
2023-05-09T02:58:22.300Z,100651.03
2023-05-09T03:00:50.988Z,100646.72
2023-05-09T03:03:19.257Z,100648.91
2023-05-09T03:05:47.588Z,100643.41
2023-05-09T03:08:16.348Z,100647.63
2023-05-09T03:10:44.336Z,100637.81
2023-05-09T03:13:11.984Z,100639.47
2023-05-09T03:15:40.133Z,100636.25
2023-05-09T03:18:09.138Z,100634.28
2023-05-09T03:20:36.697Z,100638.13
2023-05-09T03:23:04.561Z,100637.41
2023-05-09T03:25:33.173Z,100638.22
2023-05-09T03:28:00.852Z,100647.53
2023-05-09T03:30:28.963Z,100642.62
2023-05-09T03:32:57.276Z,100639.34
2023-05-09T03:35:25.632Z,100642.78
2023-05-09T03:37:53.841Z,100637.63
2023-05-09T03:40:21.318Z,100644.63
2023-05-09T03:42:49.170Z,100647.31
2023-05-09T03:45:16.926Z,100647.81
2023-05-09T03:47:46.308Z,100651.53
2023-05-09T03:50:21.067Z,100652.59
2023-05-09T03:52:50.506Z,100653.03
2023-05-09T03:55:19.513Z,100652.88
2023-05-09T03:57:47.133Z,100652.12
2023-05-09T04:00:16.052Z,100647.16
2023-05-09T04:02:46.837Z,100651.44
2023-05-09T04:05:16.761Z,100649.06
2023-05-09T04:07:47.208Z,100648.19
2023-05-09T04:10:18.036Z,100646.81
2023-05-09T04:12:47.013Z,100652.56
2023-05-09T04:15:16.038Z,100654.88
2023-05-09T04:17:45.784Z,100650.34
2023-05-09T04:20:17.855Z,100659.97
2023-05-09T04:22:46.998Z,100654.28
2023-05-09T04:25:20.317Z,100642.94
2023-05-09T04:27:48.535Z,100650.03
2023-05-09T04:30:16.719Z,100650.75
2023-05-09T04:32:48.056Z,100649.91
2023-05-09T04:35:18.050Z,100648.53
2023-05-09T04:37:47.689Z,100650.28
2023-05-09T04:40:18.405Z,100660.06
2023-05-09T04:42:53.777Z,100652.28
2023-05-09T04:45:27.907Z,100663.91
2023-05-09T04:47:55.394Z,100656.31
2023-05-09T04:50:23.674Z,100655.22
2023-05-09T04:52:51.816Z,100650.22
2023-05-09T04:55:21.292Z,100658.47
2023-05-09T04:57:55.044Z,100657.63
2023-05-09T05:00:25.735Z,100658.59
2023-05-09T05:02:53.847Z,100648.75
2023-05-09T05:05:25.403Z,100650.63
2023-05-09T05:07:55.064Z,100661.59
2023-05-09T05:10:24.444Z,100661.56
2023-05-09T05:12:55.038Z,100666.00
2023-05-09T05:15:24.296Z,100656.91
2023-05-09T05:17:58.098Z,100661.69
2023-05-09T05:20:28.760Z,100661.34
2023-05-09T05:22:58.558Z,100663.00
2023-05-09T05:25:31.354Z,100667.59
2023-05-09T05:28:00.741Z,100661.97
2023-05-09T05:30:30.382Z,100660.69
2023-05-09T05:33:06.750Z,100663.75
2023-05-09T05:35:35.706Z,100664.37
2023-05-09T05:38:04.999Z,100652.09
2023-05-09T05:40:32.623Z,100656.53
2023-05-09T05:43:02.328Z,100657.16
2023-05-09T05:45:31.584Z,100649.63
2023-05-09T05:47:59.981Z,100644.72
2023-05-09T05:50:30.203Z,100647.53
2023-05-09T05:52:58.563Z,100644.72
2023-05-09T05:55:32.124Z,100649.94
2023-05-09T05:58:01.586Z,100642.84
2023-05-09T06:00:30.816Z,100643.59
2023-05-09T06:02:59.161Z,100654.06
2023-05-09T06:05:30.306Z,100647.03
2023-05-09T06:10:33.236Z,100651.13
2023-05-09T06:13:01.614Z,100652.81
2023-05-09T06:15:31.879Z,100649.41
2023-05-09T06:18:02.378Z,100651.13
2023-05-09T06:20:31.019Z,100655.78
2023-05-09T06:22:59.946Z,100650.06
2023-05-09T06:25:32.096Z,100644.84
2023-05-09T06:28:04.037Z,100644.56
2023-05-09T06:30:31.865Z,100642.12
2023-05-09T06:33:00.247Z,100640.13
2023-05-09T06:35:28.295Z,100644.09
2023-05-09T06:37:56.099Z,100640.69
2023-05-09T06:40:23.885Z,100636.03
2023-05-09T06:42:51.874Z,100643.16
2023-05-09T06:45:22.204Z,100633.91
2023-05-09T06:47:50.202Z,100630.22
2023-05-09T06:50:22.797Z,100641.38
2023-05-09T06:52:51.192Z,100639.81
2023-05-09T06:55:22.139Z,100638.72
2023-05-09T06:57:49.845Z,100635.62
2023-05-09T07:00:18.349Z,100639.75
2023-05-09T07:02:46.664Z,100627.09
2023-05-09T07:05:14.449Z,100632.28
2023-05-09T07:07:42.340Z,100630.09
2023-05-09T07:10:12.359Z,100624.56
2023-05-09T07:12:45.540Z,100624.84
2023-05-09T07:15:15.572Z,100628.47
2023-05-09T07:17:50.225Z,100620.91
2023-05-09T07:20:19.069Z,100627.75
2023-05-09T07:22:47.101Z,100616.09
2023-05-09T07:25:16.278Z,100612.16
2023-05-09T07:27:44.913Z,100599.53
2023-05-09T07:30:17.460Z,100604.75
2023-05-09T07:32:47.582Z,100595.03
2023-05-09T07:35:15.755Z,100601.78
2023-05-09T07:37:47.947Z,100590.25
2023-05-09T07:40:17.300Z,100588.53
2023-05-09T07:42:50.115Z,100592.69
2023-05-09T07:45:19.996Z,100589.41
2023-05-09T07:47:49.653Z,100581.47
2023-05-09T07:50:18.467Z,100583.47
2023-05-09T07:52:55.187Z,100578.56
2023-05-09T07:55:23.461Z,100577.50
2023-05-09T07:57:53.097Z,100575.41
2023-05-09T08:00:24.189Z,100576.97
2023-05-09T08:02:54.198Z,100569.63
2023-05-09T08:05:23.157Z,100564.88
2023-05-09T08:07:50.786Z,100557.84
2023-05-09T08:10:18.921Z,100563.22
2023-05-09T08:12:49.172Z,100555.41
2023-05-09T08:15:30.943Z,100554.63
2023-05-09T08:17:59.204Z,100557.59
2023-05-09T08:20:27.700Z,100554.72
2023-05-09T08:22:55.360Z,100539.63
2023-05-09T08:25:25.665Z,100540.25
2023-05-09T08:27:53.993Z,100546.03
2023-05-09T08:30:24.108Z,100536.44
2023-05-09T08:32:53.136Z,100544.25
2023-05-09T08:35:26.003Z,100543.53
2023-05-09T08:37:54.104Z,100530.75
2023-05-09T08:40:22.516Z,100535.81
2023-05-09T08:42:54.311Z,100539.78
2023-05-09T08:45:23.567Z,100526.84
2023-05-09T08:47:51.254Z,100532.47
2023-05-09T08:50:19.555Z,100537.88
2023-05-09T08:52:50.006Z,100545.72
2023-05-09T08:55:17.797Z,100545.97
2023-05-09T08:57:45.283Z,100534.34
2023-05-09T09:00:15.971Z,100534.84
2023-05-09T09:02:47.067Z,100535.03
2023-05-09T09:05:39.505Z,100526.91
2023-05-09T09:08:07.701Z,100521.13
2023-05-09T09:10:40.194Z,100512.69
2023-05-09T09:13:10.263Z,100517.12
2023-05-09T09:15:38.981Z,100510.53
2023-05-09T09:18:09.218Z,100506.31
2023-05-09T09:20:46.059Z,100523.50
2023-05-09T09:23:16.014Z,100518.97
2023-05-09T09:25:45.799Z,100518.03
2023-05-09T09:28:18.231Z,100504.75
2023-05-09T09:30:49.258Z,100502.53
2023-05-09T09:33:21.975Z,100497.94
2023-05-09T09:35:51.724Z,100503.19
2023-05-09T09:38:20.756Z,100498.72
2023-05-09T09:40:52.275Z,100503.62
2023-05-09T09:43:21.196Z,100501.59
2023-05-09T09:45:51.830Z,100497.16
2023-05-09T09:48:26.424Z,100492.50
2023-05-09T09:50:59.239Z,100493.06
2023-05-09T09:53:30.344Z,100484.94
2023-05-09T09:55:58.687Z,100480.41
2023-05-09T09:58:27.727Z,100481.06
2023-05-09T10:01:08.060Z,100477.94
2023-05-09T10:03:37.485Z,100488.03
2023-05-09T10:06:05.822Z,100475.38
2023-05-09T10:08:34.037Z,100471.09
2023-05-09T10:11:04.997Z,100471.66
2023-05-09T10:13:35.930Z,100467.69
2023-05-09T10:16:05.227Z,100477.47
2023-05-09T10:18:37.596Z,100477.78
2023-05-09T10:21:07.156Z,100480.38
2023-05-09T10:23:37.595Z,100476.28
2023-05-09T10:26:09.018Z,100477.56
2023-05-09T10:28:37.106Z,100469.25
2023-05-09T10:31:11.789Z,100467.97
2023-05-09T10:33:43.605Z,100475.38
2023-05-09T10:36:11.219Z,100455.50
2023-05-09T10:38:39.084Z,100467.28
2023-05-09T10:41:10.254Z,100457.66
2023-05-09T10:43:37.748Z,100470.47
2023-05-09T10:46:05.343Z,100461.53
2023-05-09T10:48:38.005Z,100458.22
2023-05-09T10:51:12.170Z,100458.38
2023-05-09T10:53:47.997Z,100459.69
2023-05-09T10:56:27.135Z,100455.19
2023-05-09T10:58:55.146Z,100460.47
2023-05-09T11:01:37.226Z,100463.47
2023-05-09T11:04:12.137Z,100464.94
2023-05-09T11:06:51.629Z,100459.59
2023-05-09T11:09:33.319Z,100453.97
2023-05-09T11:12:08.679Z,100463.00
2023-05-09T11:14:47.107Z,100449.94
2023-05-09T11:17:22.146Z,100441.72
2023-05-09T11:19:52.066Z,100433.03
2023-05-09T11:22:22.433Z,100436.91
2023-05-09T11:25:17.328Z,100434.44
2023-05-09T11:27:46.140Z,100432.69
2023-05-09T11:30:15.737Z,100423.41
2023-05-09T11:32:51.700Z,100418.44
2023-05-09T11:35:21.069Z,100424.34
2023-05-09T11:37:49.147Z,100412.66
2023-05-09T11:40:18.097Z,100429.59
2023-05-09T11:42:51.004Z,100428.84
2023-05-09T11:45:18.895Z,100424.25
2023-05-09T11:47:49.333Z,100420.03
2023-05-09T11:50:22.215Z,100412.19
2023-05-09T11:52:50.175Z,100410.75
2023-05-09T11:55:19.885Z,100408.62
2023-05-09T11:57:50.513Z,100408.56
2023-05-09T12:00:20.668Z,100409.63
2023-05-09T12:02:54.881Z,100401.66
2023-05-09T12:05:25.071Z,100387.69
2023-05-09T12:07:55.355Z,100397.44
2023-05-09T12:10:23.455Z,100395.66
2023-05-09T12:12:56.180Z,100386.56
2023-05-09T12:15:28.088Z,100383.06
2023-05-09T12:18:01.141Z,100385.31
2023-05-09T12:20:42.557Z,100389.91
2023-05-09T12:23:12.722Z,100393.66
2023-05-09T12:25:55.044Z,100389.75
2023-05-09T12:28:29.315Z,100389.87
2023-05-09T12:30:58.904Z,100384.88
2023-05-09T12:33:31.648Z,100377.56
2023-05-09T12:36:04.108Z,100369.16
2023-05-09T12:38:37.282Z,100357.09
2023-05-09T12:41:07.929Z,100365.06
2023-05-09T12:43:41.569Z,100375.66
2023-05-09T12:46:12.065Z,100369.22
2023-05-09T12:48:51.153Z,100365.31
2023-05-09T12:51:20.645Z,100352.28
2023-05-09T12:53:50.309Z,100358.31
2023-05-09T12:56:20.741Z,100345.50
2023-05-09T12:58:54.087Z,100345.66
2023-05-09T13:01:29.215Z,100338.66
2023-05-09T13:04:07.389Z,100328.19
2023-05-09T13:06:48.273Z,100324.34
2023-05-09T13:09:24.231Z,100321.41
2023-05-09T13:11:53.182Z,100333.19
2023-05-09T13:14:25.356Z,100334.12
2023-05-09T13:16:54.119Z,100328.53
2023-05-09T13:19:21.851Z,100320.56
2023-05-09T13:21:50.458Z,100314.22
2023-05-09T13:24:20.572Z,100316.13
2023-05-09T13:26:48.560Z,100310.22
2023-05-09T13:29:30.193Z,100313.19
2023-05-09T13:32:01.516Z,100310.09
2023-05-09T13:34:36.904Z,100316.69
2023-05-09T13:39:51.199Z,100309.56
2023-05-09T13:42:19.557Z,100308.97
2023-05-09T13:44:48.129Z,100300.84
2023-05-09T13:47:23.549Z,100299.09
2023-05-09T13:49:53.985Z,100299.81
2023-05-09T13:52:28.029Z,100297.25
2023-05-09T13:54:57.580Z,100295.69
2023-05-09T13:57:28.093Z,100290.94
2023-05-09T13:59:59.986Z,100286.78
2023-05-09T14:02:33.925Z,100287.13
2023-05-09T14:05:04.859Z,100289.22
2023-05-09T14:07:34.552Z,100283.84
2023-05-09T14:10:15.841Z,100275.19
2023-05-09T14:12:47.567Z,100273.97
2023-05-09T14:15:16.786Z,100272.50
2023-05-09T14:17:45.056Z,100273.84
2023-05-09T14:20:16.554Z,100271.63
2023-05-09T14:22:47.080Z,100271.78
2023-05-09T14:25:21.146Z,100268.25
2023-05-09T14:27:53.215Z,100262.31
2023-05-09T14:30:29.138Z,100256.19
2023-05-09T14:33:00.038Z,100250.25
2023-05-09T14:35:36.627Z,100249.66
2023-05-09T14:38:09.674Z,100251.59
2023-05-09T14:40:40.205Z,100240.72
2023-05-09T14:43:12.916Z,100256.16
2023-05-09T14:45:43.274Z,100247.37
2023-05-09T14:48:15.264Z,100253.59
2023-05-09T14:50:57.237Z,100242.72
2023-05-09T14:53:33.211Z,100239.78
2023-05-09T14:56:07.556Z,100245.91
2023-05-09T15:01:26.286Z,100226.78
2023-05-09T15:03:54.818Z,100236.03
2023-05-09T15:06:31.677Z,100231.25
2023-05-09T15:09:01.822Z,100230.16
2023-05-09T15:11:46.740Z,100232.25
2023-05-09T15:14:23.665Z,100233.78
2023-05-09T15:16:59.246Z,100232.16
2023-05-09T15:19:31.948Z,100224.66
2023-05-09T15:22:04.161Z,100220.78
2023-05-09T15:24:36.678Z,100224.69
2023-05-09T15:27:08.842Z,100212.91
2023-05-09T15:29:49.392Z,100208.53
2023-05-09T15:32:24.706Z,100212.84
2023-05-09T15:34:53.776Z,100218.47
2023-05-09T15:37:24.940Z,100213.66
2023-05-09T15:39:55.428Z,100210.66
2023-05-09T15:42:25.692Z,100205.72
2023-05-09T15:44:57.688Z,100210.44
2023-05-09T15:47:27.411Z,100210.88
2023-05-09T15:50:04.208Z,100207.97
2023-05-09T15:52:38.232Z,100204.41
2023-05-09T15:55:06.249Z,100195.78
2023-05-09T16:02:47.339Z,100199.31
2023-05-09T16:08:00.100Z,100193.84
2023-05-09T16:10:35.222Z,100191.44
2023-05-09T16:13:14.156Z,100185.31
2023-05-09T16:15:48.291Z,100189.56
2023-05-09T16:18:18.034Z,100182.75
2023-05-09T16:20:50.644Z,100179.47
2023-05-09T16:23:20.158Z,100188.41
2023-05-09T16:25:50.300Z,100192.94
2023-05-09T16:28:23.132Z,100190.88
2023-05-09T16:31:04.781Z,100195.56
2023-05-09T16:33:45.100Z,100190.03
2023-05-09T16:36:15.842Z,100183.84
2023-05-09T16:38:44.817Z,100180.59
2023-05-09T16:41:14.086Z,100180.94
2023-05-09T16:43:48.173Z,100179.47
2023-05-09T16:46:16.480Z,100183.44
2023-05-09T16:48:54.454Z,100179.91
2023-05-09T16:51:34.095Z,100170.72
2023-05-09T16:59:18.129Z,100167.50
2023-05-09T17:01:48.827Z,100165.34
2023-05-09T17:04:20.721Z,100162.47
2023-05-09T17:06:51.419Z,100162.87
2023-05-09T17:12:04.253Z,100160.59
2023-05-09T17:14:35.075Z,100161.50
2023-05-09T17:17:03.859Z,100165.78
2023-05-09T17:19:34.122Z,100159.00
2023-05-09T17:22:09.009Z,100157.31
2023-05-09T17:24:41.082Z,100157.41
2023-05-09T17:27:19.295Z,100155.84
2023-05-09T17:29:54.442Z,100162.81
2023-05-09T17:32:21.905Z,100163.09
2023-05-09T17:34:57.112Z,100166.97
2023-05-09T17:40:08.003Z,100157.19
2023-05-09T17:42:44.505Z,100161.53
2023-05-09T17:45:19.127Z,100154.66
2023-05-09T17:47:51.274Z,100159.47
2023-05-09T17:50:25.087Z,100162.03
2023-05-09T17:52:58.875Z,100167.56
2023-05-09T17:55:31.692Z,100162.63
2023-05-09T17:58:03.070Z,100162.16
2023-05-09T18:00:38.197Z,100160.59
2023-05-09T18:03:11.893Z,100168.09
2023-05-09T18:05:44.605Z,100159.78
2023-05-09T18:08:14.323Z,100157.72
2023-05-09T18:10:50.278Z,100159.13
2023-05-09T18:13:26.055Z,100160.47
2023-05-09T18:16:00.164Z,100163.66
2023-05-09T18:18:35.303Z,100159.28
2023-05-09T18:21:05.822Z,100161.16
2023-05-09T18:23:33.983Z,100166.91
2023-05-09T18:26:02.496Z,100169.16
2023-05-09T18:28:43.300Z,100166.72
2023-05-09T18:33:54.462Z,100161.03
2023-05-09T18:36:27.980Z,100167.84
2023-05-09T18:38:57.082Z,100168.72
2023-05-09T18:41:26.813Z,100174.22
2023-05-09T18:46:40.119Z,100182.44
2023-05-09T18:49:20.133Z,100186.81
2023-05-09T18:51:58.239Z,100180.72
2023-05-09T18:54:41.182Z,100186.16
2023-05-09T18:57:10.127Z,100185.56
2023-05-09T18:59:46.128Z,100181.91
2023-05-09T19:02:20.702Z,100189.94
2023-05-09T19:04:58.302Z,100183.84
2023-05-09T19:07:26.511Z,100192.81
2023-05-09T19:09:59.102Z,100190.78
2023-05-09T19:12:31.483Z,100194.97
2023-05-09T19:15:14.213Z,100195.81
2023-05-09T19:17:42.380Z,100194.97
2023-05-09T19:20:10.788Z,100189.19
2023-05-09T19:22:50.307Z,100192.16
2023-05-09T19:25:30.113Z,100190.78
2023-05-09T19:28:00.722Z,100188.84
2023-05-09T19:30:29.303Z,100197.91
2023-05-09T19:33:00.255Z,100195.94
2023-05-09T19:35:41.471Z,100190.59
2023-05-09T19:38:13.104Z,100195.16
2023-05-09T19:40:51.201Z,100191.94
2023-05-09T19:43:19.565Z,100195.59
2023-05-09T19:45:47.080Z,100197.69
2023-05-09T19:48:17.098Z,100187.47
2023-05-09T19:50:58.092Z,100196.19
2023-05-09T19:53:40.239Z,100196.94
2023-05-09T19:56:09.640Z,100187.22
2023-05-09T19:58:44.243Z,100192.81
2023-05-09T20:01:14.044Z,100190.22
2023-05-09T20:03:47.238Z,100182.13
2023-05-09T20:06:25.877Z,100185.06
2023-05-09T20:08:55.491Z,100185.50
2023-05-09T20:11:23.213Z,100185.84
2023-05-09T20:13:53.690Z,100182.50
2023-05-09T20:16:25.934Z,100182.75
2023-05-09T20:18:57.067Z,100185.47
2023-05-09T20:21:27.664Z,100189.72
2023-05-09T20:23:58.447Z,100188.50
2023-05-09T20:26:29.069Z,100178.69
2023-05-09T20:29:04.056Z,100177.41
2023-05-09T20:31:35.853Z,100180.13
2023-05-09T20:34:03.500Z,100179.66
2023-05-09T20:36:33.047Z,100182.75
2023-05-09T20:39:03.746Z,100178.22
2023-05-09T20:41:33.057Z,100176.03
2023-05-09T20:44:04.096Z,100167.94
2023-05-09T20:46:32.203Z,100168.47
2023-05-09T20:49:01.050Z,100166.91
2023-05-09T20:51:28.886Z,100155.84
2023-05-09T20:53:58.114Z,100162.00
2023-05-09T20:56:29.544Z,100163.44
2023-05-09T20:59:00.964Z,100163.31
2023-05-09T21:01:36.953Z,100154.94
2023-05-09T21:04:10.804Z,100162.22
2023-05-09T21:06:38.913Z,100158.31
2023-05-09T21:09:07.046Z,100160.41
2023-05-09T21:11:35.019Z,100158.53
2023-05-09T21:14:04.189Z,100157.81
2023-05-09T21:16:33.084Z,100154.44
2023-05-09T21:19:03.106Z,100156.91
2023-05-09T21:21:33.044Z,100152.84
2023-05-09T21:24:09.228Z,100155.66
2023-05-09T21:26:36.789Z,100153.97
2023-05-09T21:29:07.257Z,100152.66
2023-05-09T21:31:38.282Z,100145.87
2023-05-09T21:34:10.215Z,100150.09
2023-05-09T21:36:39.163Z,100144.28
2023-05-09T21:39:11.138Z,100157.28
2023-05-09T21:41:39.953Z,100160.94
2023-05-09T21:44:08.442Z,100155.53
2023-05-09T21:46:36.349Z,100159.34
2023-05-09T21:49:04.558Z,100147.34
2023-05-09T21:51:33.550Z,100146.88
2023-05-09T21:54:02.008Z,100146.84
2023-05-09T21:56:31.372Z,100151.63
2023-05-09T21:58:59.015Z,100156.75
2023-05-09T22:01:27.006Z,100152.97
2023-05-09T22:04:01.111Z,100148.41
2023-05-09T22:06:28.651Z,100143.25
2023-05-09T22:08:56.820Z,100148.87
2023-05-09T22:11:24.604Z,100150.09
2023-05-09T22:13:54.117Z,100138.50
2023-05-09T22:16:22.422Z,100150.50
2023-05-09T22:18:49.932Z,100146.66
2023-05-09T22:21:18.567Z,100148.75
2023-05-09T22:23:46.298Z,100141.34
2023-05-09T22:26:13.470Z,100143.25
2023-05-09T22:28:41.063Z,100139.63
2023-05-09T22:31:08.831Z,100142.88
2023-05-09T22:33:36.534Z,100140.94
2023-05-09T22:36:04.105Z,100142.69
2023-05-09T22:38:31.735Z,100147.34
2023-05-09T22:40:59.144Z,100141.44
2023-05-09T22:43:28.884Z,100144.28
2023-05-09T22:46:05.126Z,100140.03
2023-05-09T22:48:33.522Z,100140.47
2023-05-09T22:51:00.908Z,100142.69
2023-05-09T22:53:29.473Z,100150.00
2023-05-09T22:55:58.822Z,100135.72
2023-05-09T22:58:26.641Z,100135.44
2023-05-09T23:00:54.550Z,100135.34
2023-05-09T23:03:22.331Z,100136.56
2023-05-09T23:05:50.434Z,100132.75
2023-05-09T23:08:17.920Z,100132.19
2023-05-09T23:10:47.371Z,100128.59
2023-05-09T23:13:15.010Z,100129.25
2023-05-09T23:15:42.875Z,100131.84
2023-05-09T23:18:10.404Z,100131.16
2023-05-09T23:20:37.844Z,100130.66
2023-05-09T23:23:06.848Z,100127.44
2023-05-09T23:25:34.433Z,100129.03
2023-05-09T23:28:02.697Z,100137.59
2023-05-09T23:30:34.511Z,100129.78
2023-05-09T23:33:05.151Z,100128.81
2023-05-09T23:35:32.911Z,100129.50
2023-05-09T23:38:00.475Z,100123.41
2023-05-09T23:40:27.940Z,100123.88
2023-05-09T23:42:56.061Z,100120.09
2023-05-09T23:45:23.530Z,100126.44
2023-05-09T23:47:52.067Z,100117.94
2023-05-09T23:50:20.952Z,100120.91
2023-05-09T23:52:51.156Z,100121.97
2023-05-09T23:55:18.635Z,100110.56
2023-05-09T23:57:46.469Z,100114.31
